sensor_id;sensor_type;location;lat;lon;timestamp;P1;durP1;ratioP1;P2;durP2;ratioP2
11681;SDS011;5897;42.640;23.310;2022-07-21T00:01:24;1.70;;;1.60;;
11681;SDS011;5897;42.640;23.310;2022-07-21T00:03:51;2.55;;;1.90;;
11681;SDS011;5897;42.640;23.310;2022-07-21T00:06:18;3.33;;;1.80;;
11681;SDS011;5897;42.640;23.310;2022-07-21T00:08:44;1.70;;;1.60;;
11681;SDS011;5897;42.640;23.310;2022-07-21T00:11:14;4.00;;;1.80;;
11681;SDS011;5897;42.640;23.310;2022-07-21T00:13:41;1.98;;;1.70;;
11681;SDS011;5897;42.640;23.310;2022-07-21T00:16:09;2.88;;;1.90;;
11681;SDS011;5897;42.640;23.310;2022-07-21T00:18:36;2.10;;;1.70;;
11681;SDS011;5897;42.640;23.310;2022-07-21T00:21:03;2.38;;;1.70;;
11681;SDS011;5897;42.640;23.310;2022-07-21T00:23:30;3.33;;;2.13;;
11681;SDS011;5897;42.640;23.310;2022-07-21T00:25:56;4.35;;;2.00;;
11681;SDS011;5897;42.640;23.310;2022-07-21T00:28:23;3.95;;;2.20;;
11681;SDS011;5897;42.640;23.310;2022-07-21T00:30:50;3.60;;;2.22;;
11681;SDS011;5897;42.640;23.310;2022-07-21T00:33:18;5.05;;;2.50;;
11681;SDS011;5897;42.640;23.310;2022-07-21T00:35:45;2.70;;;2.50;;
11681;SDS011;5897;42.640;23.310;2022-07-21T00:38:15;4.35;;;2.30;;
11681;SDS011;5897;42.640;23.310;2022-07-21T00:40:41;4.57;;;2.28;;
11681;SDS011;5897;42.640;23.310;2022-07-21T00:43:08;3.92;;;2.63;;
11681;SDS011;5897;42.640;23.310;2022-07-21T00:45:35;2.65;;;2.45;;
11681;SDS011;5897;42.640;23.310;2022-07-21T00:48:02;2.55;;;2.10;;
11681;SDS011;5897;42.640;23.310;2022-07-21T00:50:31;4.15;;;2.30;;
11681;SDS011;5897;42.640;23.310;2022-07-21T00:52:58;4.10;;;2.22;;
11681;SDS011;5897;42.640;23.310;2022-07-21T00:55:25;2.92;;;2.40;;
11681;SDS011;5897;42.640;23.310;2022-07-21T00:57:52;3.08;;;2.30;;
11681;SDS011;5897;42.640;23.310;2022-07-21T01:00:20;4.35;;;2.20;;
11681;SDS011;5897;42.640;23.310;2022-07-21T01:02:49;3.17;;;2.33;;
11681;SDS011;5897;42.640;23.310;2022-07-21T01:05:16;3.85;;;2.20;;
11681;SDS011;5897;42.640;23.310;2022-07-21T01:07:47;6.18;;;2.22;;
11681;SDS011;5897;42.640;23.310;2022-07-21T01:10:16;2.88;;;2.22;;
11681;SDS011;5897;42.640;23.310;2022-07-21T01:12:43;3.85;;;2.05;;
11681;SDS011;5897;42.640;23.310;2022-07-21T01:15:13;3.72;;;1.92;;
11681;SDS011;5897;42.640;23.310;2022-07-21T01:17:41;3.40;;;2.05;;
11681;SDS011;5897;42.640;23.310;2022-07-21T01:20:10;5.20;;;2.00;;
11681;SDS011;5897;42.640;23.310;2022-07-21T01:22:41;1.90;;;1.80;;
11681;SDS011;5897;42.640;23.310;2022-07-21T01:25:10;2.75;;;2.10;;
11681;SDS011;5897;42.640;23.310;2022-07-21T01:27:37;1.95;;;1.80;;
11681;SDS011;5897;42.640;23.310;2022-07-21T01:30:06;2.78;;;2.10;;
11681;SDS011;5897;42.640;23.310;2022-07-21T01:32:34;2.97;;;1.90;;
11681;SDS011;5897;42.640;23.310;2022-07-21T01:35:03;3.13;;;1.90;;
11681;SDS011;5897;42.640;23.310;2022-07-21T01:37:31;1.85;;;1.75;;
11681;SDS011;5897;42.640;23.310;2022-07-21T01:40:03;3.85;;;1.90;;
11681;SDS011;5897;42.640;23.310;2022-07-21T01:42:48;3.47;;;1.92;;
11681;SDS011;5897;42.640;23.310;2022-07-21T01:45:14;2.55;;;2.10;;
11681;SDS011;5897;42.640;23.310;2022-07-21T01:47:41;2.45;;;1.80;;
11681;SDS011;5897;42.640;23.310;2022-07-21T01:50:08;2.20;;;1.65;;
11681;SDS011;5897;42.640;23.310;2022-07-21T01:52:36;1.88;;;1.77;;
11681;SDS011;5897;42.640;23.310;2022-07-21T01:55:04;3.15;;;1.90;;
11681;SDS011;5897;42.640;23.310;2022-07-21T01:57:32;2.28;;;1.92;;
11681;SDS011;5897;42.640;23.310;2022-07-21T01:59:59;3.28;;;1.90;;
11681;SDS011;5897;42.640;23.310;2022-07-21T02:02:26;2.20;;;1.90;;
11681;SDS011;5897;42.640;23.310;2022-07-21T02:04:53;1.85;;;1.75;;
11681;SDS011;5897;42.640;23.310;2022-07-21T02:07:19;3.00;;;1.80;;
11681;SDS011;5897;42.640;23.310;2022-07-21T02:09:46;2.03;;;1.88;;
11681;SDS011;5897;42.640;23.310;2022-07-21T02:12:14;3.53;;;2.10;;
11681;SDS011;5897;42.640;23.310;2022-07-21T02:14:41;3.88;;;2.25;;
11681;SDS011;5897;42.640;23.310;2022-07-21T02:17:08;4.68;;;2.20;;
11681;SDS011;5897;42.640;23.310;2022-07-21T02:19:34;2.63;;;2.22;;
11681;SDS011;5897;42.640;23.310;2022-07-21T02:22:01;2.90;;;2.30;;
11681;SDS011;5897;42.640;23.310;2022-07-21T02:24:28;3.60;;;2.10;;
11681;SDS011;5897;42.640;23.310;2022-07-21T02:26:55;2.97;;;2.30;;
11681;SDS011;5897;42.640;23.310;2022-07-21T02:29:23;3.38;;;2.40;;
11681;SDS011;5897;42.640;23.310;2022-07-21T02:31:50;2.53;;;2.15;;
11681;SDS011;5897;42.640;23.310;2022-07-21T02:34:17;2.60;;;2.40;;
11681;SDS011;5897;42.640;23.310;2022-07-21T02:36:44;4.07;;;2.40;;
11681;SDS011;5897;42.640;23.310;2022-07-21T02:39:10;2.72;;;2.25;;
11681;SDS011;5897;42.640;23.310;2022-07-21T02:41:37;3.05;;;2.58;;
11681;SDS011;5897;42.640;23.310;2022-07-21T02:44:04;3.78;;;2.42;;
11681;SDS011;5897;42.640;23.310;2022-07-21T02:46:32;4.57;;;2.47;;
11681;SDS011;5897;42.640;23.310;2022-07-21T02:48:59;3.42;;;2.72;;
11681;SDS011;5897;42.640;23.310;2022-07-21T02:51:25;4.93;;;2.50;;
11681;SDS011;5897;42.640;23.310;2022-07-21T02:53:52;3.95;;;2.75;;
11681;SDS011;5897;42.640;23.310;2022-07-21T02:56:19;3.05;;;2.60;;
11681;SDS011;5897;42.640;23.310;2022-07-21T02:58:46;3.25;;;2.63;;
11681;SDS011;5897;42.640;23.310;2022-07-21T03:01:12;2.25;;;2.05;;
11681;SDS011;5897;42.640;23.310;2022-07-21T03:03:40;5.00;;;2.92;;
11681;SDS011;5897;42.640;23.310;2022-07-21T03:06:07;2.70;;;2.30;;
11681;SDS011;5897;42.640;23.310;2022-07-21T03:08:34;3.80;;;2.20;;
11681;SDS011;5897;42.640;23.310;2022-07-21T03:11:01;2.65;;;2.45;;
11681;SDS011;5897;42.640;23.310;2022-07-21T03:13:29;4.25;;;2.58;;
11681;SDS011;5897;42.640;23.310;2022-07-21T03:15:55;2.40;;;2.20;;
11681;SDS011;5897;42.640;23.310;2022-07-21T03:18:22;5.97;;;2.75;;
11681;SDS011;5897;42.640;23.310;2022-07-21T03:20:50;2.55;;;2.35;;
11681;SDS011;5897;42.640;23.310;2022-07-21T03:23:17;7.13;;;2.67;;
11681;SDS011;5897;42.640;23.310;2022-07-21T03:25:44;4.00;;;2.70;;
11681;SDS011;5897;42.640;23.310;2022-07-21T03:28:11;2.72;;;2.33;;
11681;SDS011;5897;42.640;23.310;2022-07-21T03:30:37;4.22;;;2.90;;
11681;SDS011;5897;42.640;23.310;2022-07-21T03:33:04;4.40;;;2.72;;
11681;SDS011;5897;42.640;23.310;2022-07-21T03:35:32;4.60;;;2.78;;
11681;SDS011;5897;42.640;23.310;2022-07-21T03:38:02;5.60;;;2.65;;
11681;SDS011;5897;42.640;23.310;2022-07-21T03:40:30;3.05;;;2.40;;
11681;SDS011;5897;42.640;23.310;2022-07-21T03:42:59;4.63;;;2.75;;
11681;SDS011;5897;42.640;23.310;2022-07-21T03:45:27;3.03;;;2.38;;
11681;SDS011;5897;42.640;23.310;2022-07-21T03:47:55;3.95;;;2.97;;
11681;SDS011;5897;42.640;23.310;2022-07-21T03:50:22;3.45;;;3.05;;
11681;SDS011;5897;42.640;23.310;2022-07-21T03:52:51;3.70;;;3.00;;
11681;SDS011;5897;42.640;23.310;2022-07-21T03:55:20;6.18;;;2.88;;
11681;SDS011;5897;42.640;23.310;2022-07-21T03:57:47;3.85;;;2.65;;
11681;SDS011;5897;42.640;23.310;2022-07-21T04:00:18;4.72;;;2.95;;
11681;SDS011;5897;42.640;23.310;2022-07-21T04:02:47;3.92;;;2.70;;
11681;SDS011;5897;42.640;23.310;2022-07-21T04:05:14;3.67;;;3.00;;
11681;SDS011;5897;42.640;23.310;2022-07-21T04:07:43;4.75;;;3.05;;
11681;SDS011;5897;42.640;23.310;2022-07-21T04:10:12;4.25;;;3.00;;
11681;SDS011;5897;42.640;23.310;2022-07-21T04:12:42;5.15;;;2.97;;
11681;SDS011;5897;42.640;23.310;2022-07-21T04:15:09;4.63;;;3.60;;
11681;SDS011;5897;42.640;23.310;2022-07-21T04:17:37;4.35;;;3.25;;
11681;SDS011;5897;42.640;23.310;2022-07-21T04:20:04;4.47;;;3.28;;
11681;SDS011;5897;42.640;23.310;2022-07-21T04:22:32;3.72;;;3.22;;
11681;SDS011;5897;42.640;23.310;2022-07-21T04:24:59;7.13;;;3.53;;
11681;SDS011;5897;42.640;23.310;2022-07-21T04:27:26;4.43;;;3.22;;
11681;SDS011;5897;42.640;23.310;2022-07-21T04:29:54;5.78;;;3.60;;
11681;SDS011;5897;42.640;23.310;2022-07-21T04:32:21;7.30;;;3.60;;
11681;SDS011;5897;42.640;23.310;2022-07-21T04:34:48;5.60;;;3.22;;
11681;SDS011;5897;42.640;23.310;2022-07-21T04:37:15;4.88;;;3.67;;
11681;SDS011;5897;42.640;23.310;2022-07-21T04:39:42;7.15;;;3.67;;
11681;SDS011;5897;42.640;23.310;2022-07-21T04:42:09;3.92;;;3.20;;
11681;SDS011;5897;42.640;23.310;2022-07-21T04:44:36;6.57;;;4.00;;
11681;SDS011;5897;42.640;23.310;2022-07-21T04:47:04;4.63;;;3.50;;
11681;SDS011;5897;42.640;23.310;2022-07-21T04:49:31;5.28;;;2.78;;
11681;SDS011;5897;42.640;23.310;2022-07-21T04:51:58;3.72;;;2.80;;
11681;SDS011;5897;42.640;23.310;2022-07-21T04:54:24;3.95;;;3.05;;
11681;SDS011;5897;42.640;23.310;2022-07-21T04:56:51;4.80;;;3.65;;
11681;SDS011;5897;42.640;23.310;2022-07-21T04:59:18;5.47;;;3.80;;
11681;SDS011;5897;42.640;23.310;2022-07-21T05:01:45;5.65;;;3.80;;
11681;SDS011;5897;42.640;23.310;2022-07-21T05:04:13;7.18;;;4.10;;
11681;SDS011;5897;42.640;23.310;2022-07-21T05:06:39;8.07;;;3.80;;
11681;SDS011;5897;42.640;23.310;2022-07-21T05:09:09;6.15;;;3.70;;
11681;SDS011;5897;42.640;23.310;2022-07-21T05:11:35;7.20;;;3.28;;
11681;SDS011;5897;42.640;23.310;2022-07-21T05:14:02;4.30;;;3.70;;
11681;SDS011;5897;42.640;23.310;2022-07-21T05:16:29;4.93;;;3.95;;
11681;SDS011;5897;42.640;23.310;2022-07-21T05:18:56;5.93;;;3.50;;
11681;SDS011;5897;42.640;23.310;2022-07-21T05:21:24;6.07;;;3.30;;
11681;SDS011;5897;42.640;23.310;2022-07-21T05:23:51;5.28;;;3.90;;
11681;SDS011;5897;42.640;23.310;2022-07-21T05:26:18;6.70;;;3.72;;
11681;SDS011;5897;42.640;23.310;2022-07-21T05:28:45;7.75;;;3.55;;
11681;SDS011;5897;42.640;23.310;2022-07-21T05:31:11;5.43;;;3.75;;
11681;SDS011;5897;42.640;23.310;2022-07-21T05:33:38;5.28;;;3.50;;
11681;SDS011;5897;42.640;23.310;2022-07-21T05:36:05;3.75;;;3.40;;
11681;SDS011;5897;42.640;23.310;2022-07-21T05:38:33;7.50;;;3.60;;
11681;SDS011;5897;42.640;23.310;2022-07-21T05:41:00;6.80;;;4.15;;
11681;SDS011;5897;42.640;23.310;2022-07-21T05:43:28;8.13;;;3.95;;
11681;SDS011;5897;42.640;23.310;2022-07-21T05:45:55;11.88;;;4.22;;
11681;SDS011;5897;42.640;23.310;2022-07-21T05:48:24;7.25;;;4.07;;
11681;SDS011;5897;42.640;23.310;2022-07-21T05:50:51;7.13;;;3.97;;
11681;SDS011;5897;42.640;23.310;2022-07-21T05:53:18;6.80;;;3.83;;
11681;SDS011;5897;42.640;23.310;2022-07-21T05:55:46;6.40;;;4.13;;
11681;SDS011;5897;42.640;23.310;2022-07-21T05:58:13;12.27;;;4.30;;
11681;SDS011;5897;42.640;23.310;2022-07-21T06:00:40;9.48;;;4.43;;
11681;SDS011;5897;42.640;23.310;2022-07-21T06:03:07;7.28;;;3.92;;
11681;SDS011;5897;42.640;23.310;2022-07-21T06:05:34;10.57;;;4.50;;
11681;SDS011;5897;42.640;23.310;2022-07-21T06:08:01;9.02;;;4.43;;
11681;SDS011;5897;42.640;23.310;2022-07-21T06:10:28;11.63;;;4.32;;
11681;SDS011;5897;42.640;23.310;2022-07-21T06:12:57;15.30;;;4.22;;
11681;SDS011;5897;42.640;23.310;2022-07-21T06:15:24;5.97;;;3.80;;
11681;SDS011;5897;42.640;23.310;2022-07-21T06:17:56;9.38;;;3.92;;
11681;SDS011;5897;42.640;23.310;2022-07-21T06:20:23;7.50;;;3.95;;
11681;SDS011;5897;42.640;23.310;2022-07-21T06:23:08;12.63;;;4.10;;
11681;SDS011;5897;42.640;23.310;2022-07-21T06:25:34;9.40;;;3.97;;
11681;SDS011;5897;42.640;23.310;2022-07-21T06:28:03;9.35;;;3.80;;
11681;SDS011;5897;42.640;23.310;2022-07-21T06:30:30;12.40;;;3.72;;
11681;SDS011;5897;42.640;23.310;2022-07-21T06:32:56;9.50;;;3.65;;
11681;SDS011;5897;42.640;23.310;2022-07-21T06:35:24;10.32;;;3.78;;
11681;SDS011;5897;42.640;23.310;2022-07-21T06:37:50;7.88;;;3.38;;
11681;SDS011;5897;42.640;23.310;2022-07-21T06:40:17;10.95;;;3.85;;
11681;SDS011;5897;42.640;23.310;2022-07-21T06:42:44;6.65;;;3.33;;
11681;SDS011;5897;42.640;23.310;2022-07-21T06:45:12;13.25;;;3.70;;
11681;SDS011;5897;42.640;23.310;2022-07-21T06:47:39;7.03;;;3.55;;
11681;SDS011;5897;42.640;23.310;2022-07-21T06:50:07;8.38;;;4.03;;
11681;SDS011;5897;42.640;23.310;2022-07-21T06:52:34;11.30;;;3.88;;
11681;SDS011;5897;42.640;23.310;2022-07-21T06:55:02;7.65;;;3.90;;
11681;SDS011;5897;42.640;23.310;2022-07-21T06:57:30;10.73;;;3.95;;
11681;SDS011;5897;42.640;23.310;2022-07-21T06:59:56;9.07;;;3.67;;
11681;SDS011;5897;42.640;23.310;2022-07-21T07:02:25;11.13;;;3.40;;
11681;SDS011;5897;42.640;23.310;2022-07-21T07:04:51;9.50;;;3.65;;
11681;SDS011;5897;42.640;23.310;2022-07-21T07:07:18;11.73;;;3.47;;
11681;SDS011;5897;42.640;23.310;2022-07-21T07:09:45;10.88;;;3.50;;
11681;SDS011;5897;42.640;23.310;2022-07-21T07:12:12;7.03;;;3.35;;
11681;SDS011;5897;42.640;23.310;2022-07-21T07:14:38;9.98;;;3.60;;
11681;SDS011;5897;42.640;23.310;2022-07-21T07:17:05;10.00;;;3.90;;
11681;SDS011;5897;42.640;23.310;2022-07-21T07:19:33;12.30;;;3.55;;
11681;SDS011;5897;42.640;23.310;2022-07-21T07:22:00;5.55;;;3.38;;
11681;SDS011;5897;42.640;23.310;2022-07-21T07:24:27;8.25;;;3.17;;
11681;SDS011;5897;42.640;23.310;2022-07-21T07:26:54;5.60;;;2.70;;
11681;SDS011;5897;42.640;23.310;2022-07-21T07:29:22;6.05;;;3.17;;
11681;SDS011;5897;42.640;23.310;2022-07-21T07:31:48;9.68;;;3.03;;
11681;SDS011;5897;42.640;23.310;2022-07-21T07:34:15;5.00;;;2.85;;
11681;SDS011;5897;42.640;23.310;2022-07-21T07:36:44;8.85;;;2.75;;
11681;SDS011;5897;42.640;23.310;2022-07-21T07:39:10;6.00;;;2.67;;
11681;SDS011;5897;42.640;23.310;2022-07-21T07:41:38;9.60;;;2.80;;
11681;SDS011;5897;42.640;23.310;2022-07-21T07:44:05;4.85;;;2.42;;
11681;SDS011;5897;42.640;23.310;2022-07-21T07:46:32;5.72;;;2.50;;
11681;SDS011;5897;42.640;23.310;2022-07-21T07:48:58;7.07;;;2.30;;
11681;SDS011;5897;42.640;23.310;2022-07-21T07:51:25;3.28;;;2.33;;
11681;SDS011;5897;42.640;23.310;2022-07-21T07:53:53;4.10;;;2.15;;
11681;SDS011;5897;42.640;23.310;2022-07-21T07:56:20;6.63;;;2.30;;
11681;SDS011;5897;42.640;23.310;2022-07-21T07:58:47;5.22;;;2.30;;
11681;SDS011;5897;42.640;23.310;2022-07-21T08:01:14;5.07;;;2.25;;
11681;SDS011;5897;42.640;23.310;2022-07-21T08:03:41;2.97;;;2.40;;
11681;SDS011;5897;42.640;23.310;2022-07-21T08:06:08;3.15;;;2.00;;
11681;SDS011;5897;42.640;23.310;2022-07-21T08:08:35;2.45;;;2.03;;
11681;SDS011;5897;42.640;23.310;2022-07-21T08:11:04;4.05;;;2.03;;
11681;SDS011;5897;42.640;23.310;2022-07-21T08:13:33;3.25;;;2.00;;
11681;SDS011;5897;42.640;23.310;2022-07-21T08:16:00;6.82;;;2.00;;
11681;SDS011;5897;42.640;23.310;2022-07-21T08:18:27;3.80;;;2.17;;
11681;SDS011;5897;42.640;23.310;2022-07-21T08:20:54;5.03;;;2.40;;
11681;SDS011;5897;42.640;23.310;2022-07-21T08:23:20;2.78;;;2.00;;
11681;SDS011;5897;42.640;23.310;2022-07-21T08:25:47;2.40;;;1.92;;
11681;SDS011;5897;42.640;23.310;2022-07-21T08:28:15;6.15;;;2.00;;
11681;SDS011;5897;42.640;23.310;2022-07-21T08:30:42;2.83;;;2.15;;
11681;SDS011;5897;42.640;23.310;2022-07-21T08:33:09;5.68;;;2.30;;
11681;SDS011;5897;42.640;23.310;2022-07-21T08:35:36;2.05;;;1.90;;
11681;SDS011;5897;42.640;23.310;2022-07-21T08:38:03;2.17;;;1.88;;
11681;SDS011;5897;42.640;23.310;2022-07-21T08:40:34;2.15;;;1.90;;
11681;SDS011;5897;42.640;23.310;2022-07-21T08:43:06;4.93;;;1.98;;
11681;SDS011;5897;42.640;23.310;2022-07-21T08:45:36;2.70;;;1.95;;
11681;SDS011;5897;42.640;23.310;2022-07-21T08:48:03;4.18;;;2.00;;
11681;SDS011;5897;42.640;23.310;2022-07-21T08:50:31;7.13;;;2.00;;
11681;SDS011;5897;42.640;23.310;2022-07-21T08:53:00;3.78;;;1.95;;
11681;SDS011;5897;42.640;23.310;2022-07-21T08:55:29;2.10;;;1.90;;
11681;SDS011;5897;42.640;23.310;2022-07-21T08:57:57;2.90;;;2.10;;
11681;SDS011;5897;42.640;23.310;2022-07-21T09:00:23;3.63;;;1.90;;
11681;SDS011;5897;42.640;23.310;2022-07-21T09:02:53;3.33;;;2.10;;
11681;SDS011;5897;42.640;23.310;2022-07-21T09:05:34;4.25;;;2.35;;
11681;SDS011;5897;42.640;23.310;2022-07-21T09:08:01;2.90;;;2.03;;
11681;SDS011;5897;42.640;23.310;2022-07-21T09:10:29;3.20;;;1.80;;
11681;SDS011;5897;42.640;23.310;2022-07-21T09:12:58;4.97;;;2.28;;
11681;SDS011;5897;42.640;23.310;2022-07-21T09:15:27;4.95;;;2.08;;
11681;SDS011;5897;42.640;23.310;2022-07-21T09:18:08;4.00;;;1.98;;
11681;SDS011;5897;42.640;23.310;2022-07-21T09:20:36;2.50;;;2.08;;
11681;SDS011;5897;42.640;23.310;2022-07-21T09:23:04;4.03;;;2.20;;
11681;SDS011;5897;42.640;23.310;2022-07-21T09:25:33;3.15;;;2.15;;
11681;SDS011;5897;42.640;23.310;2022-07-21T09:28:11;2.40;;;2.20;;
11681;SDS011;5897;42.640;23.310;2022-07-21T09:30:50;3.67;;;2.25;;
11681;SDS011;5897;42.640;23.310;2022-07-21T09:33:23;2.30;;;2.10;;
11681;SDS011;5897;42.640;23.310;2022-07-21T09:35:56;2.20;;;2.00;;
11681;SDS011;5897;42.640;23.310;2022-07-21T09:38:25;2.30;;;2.03;;
11681;SDS011;5897;42.640;23.310;2022-07-21T09:41:03;2.75;;;2.22;;
11681;SDS011;5897;42.640;23.310;2022-07-21T09:43:32;2.75;;;2.20;;
11681;SDS011;5897;42.640;23.310;2022-07-21T09:46:06;4.28;;;2.72;;
11681;SDS011;5897;42.640;23.310;2022-07-21T09:48:38;2.65;;;2.00;;
11681;SDS011;5897;42.640;23.310;2022-07-21T09:51:18;5.22;;;2.50;;
11681;SDS011;5897;42.640;23.310;2022-07-21T09:53:50;5.47;;;2.70;;
11681;SDS011;5897;42.640;23.310;2022-07-21T09:56:19;3.45;;;2.20;;
11681;SDS011;5897;42.640;23.310;2022-07-21T09:58:48;3.22;;;2.10;;
11681;SDS011;5897;42.640;23.310;2022-07-21T10:01:15;2.30;;;2.10;;
11681;SDS011;5897;42.640;23.310;2022-07-21T10:03:45;3.58;;;2.55;;
11681;SDS011;5897;42.640;23.310;2022-07-21T10:06:14;2.50;;;1.90;;
11681;SDS011;5897;42.640;23.310;2022-07-21T10:08:44;2.90;;;2.13;;
11681;SDS011;5897;42.640;23.310;2022-07-21T10:11:11;3.92;;;1.92;;
11681;SDS011;5897;42.640;23.310;2022-07-21T10:13:39;3.72;;;2.10;;
11681;SDS011;5897;42.640;23.310;2022-07-21T10:16:08;2.40;;;2.17;;
11681;SDS011;5897;42.640;23.310;2022-07-21T10:18:37;6.10;;;2.08;;
11681;SDS011;5897;42.640;23.310;2022-07-21T10:21:14;4.22;;;1.88;;
11681;SDS011;5897;42.640;23.310;2022-07-21T10:23:51;3.92;;;1.80;;
11681;SDS011;5897;42.640;23.310;2022-07-21T10:26:20;3.53;;;2.10;;
11681;SDS011;5897;42.640;23.310;2022-07-21T10:28:47;2.10;;;1.90;;
11681;SDS011;5897;42.640;23.310;2022-07-21T10:31:15;3.33;;;2.10;;
11681;SDS011;5897;42.640;23.310;2022-07-21T10:33:54;3.05;;;1.83;;
11681;SDS011;5897;42.640;23.310;2022-07-21T10:36:43;2.15;;;1.95;;
11681;SDS011;5897;42.640;23.310;2022-07-21T10:39:18;3.17;;;2.22;;
11681;SDS011;5897;42.640;23.310;2022-07-21T10:41:49;6.60;;;2.20;;
11681;SDS011;5897;42.640;23.310;2022-07-21T10:44:37;5.38;;;2.00;;
11681;SDS011;5897;42.640;23.310;2022-07-21T10:47:06;1.83;;;1.67;;
11681;SDS011;5897;42.640;23.310;2022-07-21T10:49:41;1.70;;;1.60;;
11681;SDS011;5897;42.640;23.310;2022-07-21T10:55:15;2.78;;;2.00;;
11681;SDS011;5897;42.640;23.310;2022-07-21T10:58:08;1.75;;;1.65;;
11681;SDS011;5897;42.640;23.310;2022-07-21T11:00:37;1.73;;;1.52;;
11681;SDS011;5897;42.640;23.310;2022-07-21T11:03:13;3.42;;;1.73;;
11681;SDS011;5897;42.640;23.310;2022-07-21T11:08:45;3.97;;;1.75;;
11681;SDS011;5897;42.640;23.310;2022-07-21T11:11:15;3.38;;;1.95;;
11681;SDS011;5897;42.640;23.310;2022-07-21T11:19:30;2.00;;;1.63;;
11681;SDS011;5897;42.640;23.310;2022-07-21T11:22:01;2.30;;;1.83;;
11681;SDS011;5897;42.640;23.310;2022-07-21T11:24:30;2.20;;;1.83;;
11681;SDS011;5897;42.640;23.310;2022-07-21T11:27:00;5.32;;;1.70;;
11681;SDS011;5897;42.640;23.310;2022-07-21T11:29:29;1.70;;;1.60;;
11681;SDS011;5897;42.640;23.310;2022-07-21T11:31:56;1.90;;;1.70;;
11681;SDS011;5897;42.640;23.310;2022-07-21T11:34:23;4.80;;;1.80;;
11681;SDS011;5897;42.640;23.310;2022-07-21T11:36:58;2.67;;;2.05;;
11681;SDS011;5897;42.640;23.310;2022-07-21T11:39:26;4.72;;;1.90;;
11681;SDS011;5897;42.640;23.310;2022-07-21T11:41:53;2.35;;;2.00;;
11681;SDS011;5897;42.640;23.310;2022-07-21T11:44:25;3.47;;;2.03;;
11681;SDS011;5897;42.640;23.310;2022-07-21T11:46:53;2.45;;;1.85;;
11681;SDS011;5897;42.640;23.310;2022-07-21T11:49:21;2.63;;;1.80;;
11681;SDS011;5897;42.640;23.310;2022-07-21T11:51:49;2.90;;;1.90;;
11681;SDS011;5897;42.640;23.310;2022-07-21T11:54:20;2.33;;;1.85;;
11681;SDS011;5897;42.640;23.310;2022-07-21T11:56:48;2.78;;;2.00;;
11681;SDS011;5897;42.640;23.310;2022-07-21T11:59:16;3.97;;;2.10;;
11681;SDS011;5897;42.640;23.310;2022-07-21T12:01:52;2.83;;;1.77;;
11681;SDS011;5897;42.640;23.310;2022-07-21T12:04:27;2.25;;;2.05;;
11681;SDS011;5897;42.640;23.310;2022-07-21T12:06:55;2.63;;;1.90;;
11681;SDS011;5897;42.640;23.310;2022-07-21T12:09:26;2.65;;;2.00;;
11681;SDS011;5897;42.640;23.310;2022-07-21T12:11:53;2.47;;;2.00;;
11681;SDS011;5897;42.640;23.310;2022-07-21T12:14:19;1.92;;;1.70;;
11681;SDS011;5897;42.640;23.310;2022-07-21T12:16:48;3.50;;;2.10;;
11681;SDS011;5897;42.640;23.310;2022-07-21T12:19:17;3.45;;;2.13;;
11681;SDS011;5897;42.640;23.310;2022-07-21T12:21:48;4.13;;;1.98;;
11681;SDS011;5897;42.640;23.310;2022-07-21T12:24:16;5.18;;;2.20;;
11681;SDS011;5897;42.640;23.310;2022-07-21T12:26:44;3.80;;;2.10;;
11681;SDS011;5897;42.640;23.310;2022-07-21T12:29:24;3.80;;;2.30;;
11681;SDS011;5897;42.640;23.310;2022-07-21T12:31:51;4.07;;;2.20;;
11681;SDS011;5897;42.640;23.310;2022-07-21T12:34:19;2.33;;;2.13;;
11681;SDS011;5897;42.640;23.310;2022-07-21T12:36:46;3.15;;;2.33;;
11681;SDS011;5897;42.640;23.310;2022-07-21T12:39:17;4.22;;;2.20;;
11681;SDS011;5897;42.640;23.310;2022-07-21T12:42:03;3.63;;;2.30;;
11681;SDS011;5897;42.640;23.310;2022-07-21T12:44:34;3.55;;;2.42;;
11681;SDS011;5897;42.640;23.310;2022-07-21T12:47:14;2.30;;;2.10;;
11681;SDS011;5897;42.640;23.310;2022-07-21T12:49:54;2.40;;;2.00;;
11681;SDS011;5897;42.640;23.310;2022-07-21T12:52:22;2.75;;;1.80;;
11681;SDS011;5897;42.640;23.310;2022-07-21T12:54:49;3.38;;;1.88;;
11681;SDS011;5897;42.640;23.310;2022-07-21T12:57:16;2.58;;;2.00;;
11681;SDS011;5897;42.640;23.310;2022-07-21T12:59:42;2.22;;;1.77;;
11681;SDS011;5897;42.640;23.310;2022-07-21T13:02:09;2.70;;;2.08;;
11681;SDS011;5897;42.640;23.310;2022-07-21T13:04:36;3.45;;;2.10;;
11681;SDS011;5897;42.640;23.310;2022-07-21T13:07:04;2.53;;;2.10;;
11681;SDS011;5897;42.640;23.310;2022-07-21T13:09:31;2.55;;;2.00;;
11681;SDS011;5897;42.640;23.310;2022-07-21T13:11:58;6.55;;;2.22;;
11681;SDS011;5897;42.640;23.310;2022-07-21T13:14:25;2.97;;;1.90;;
11681;SDS011;5897;42.640;23.310;2022-07-21T13:16:51;2.30;;;2.10;;
11681;SDS011;5897;42.640;23.310;2022-07-21T13:19:21;2.50;;;2.30;;
11681;SDS011;5897;42.640;23.310;2022-07-21T13:21:48;4.30;;;2.03;;
11681;SDS011;5897;42.640;23.310;2022-07-21T13:24:16;2.05;;;1.85;;
11681;SDS011;5897;42.640;23.310;2022-07-21T13:26:43;3.22;;;1.90;;
11681;SDS011;5897;42.640;23.310;2022-07-21T13:29:10;2.63;;;2.00;;
11681;SDS011;5897;42.640;23.310;2022-07-21T13:31:37;3.13;;;2.08;;
11681;SDS011;5897;42.640;23.310;2022-07-21T13:34:04;2.53;;;2.00;;
11681;SDS011;5897;42.640;23.310;2022-07-21T13:36:32;2.00;;;1.90;;
11681;SDS011;5897;42.640;23.310;2022-07-21T13:38:59;5.55;;;1.90;;
11681;SDS011;5897;42.640;23.310;2022-07-21T13:41:27;5.10;;;2.30;;
11681;SDS011;5897;42.640;23.310;2022-07-21T13:43:54;3.47;;;2.15;;
11681;SDS011;5897;42.640;23.310;2022-07-21T13:46:20;4.20;;;2.13;;
11681;SDS011;5897;42.640;23.310;2022-07-21T13:48:47;3.92;;;2.30;;
11681;SDS011;5897;42.640;23.310;2022-07-21T13:51:15;3.55;;;1.95;;
11681;SDS011;5897;42.640;23.310;2022-07-21T13:53:45;5.82;;;2.10;;
11681;SDS011;5897;42.640;23.310;2022-07-21T13:56:13;2.28;;;1.92;;
11681;SDS011;5897;42.640;23.310;2022-07-21T13:58:41;2.88;;;2.00;;
11681;SDS011;5897;42.640;23.310;2022-07-21T14:01:08;4.40;;;1.83;;
11681;SDS011;5897;42.640;23.310;2022-07-21T14:03:36;6.05;;;2.25;;
11681;SDS011;5897;42.640;23.310;2022-07-21T14:06:03;4.50;;;2.10;;
11681;SDS011;5897;42.640;23.310;2022-07-21T14:08:30;2.70;;;2.13;;
11681;SDS011;5897;42.640;23.310;2022-07-21T14:10:57;2.33;;;2.00;;
11681;SDS011;5897;42.640;23.310;2022-07-21T14:13:24;4.03;;;2.55;;
11681;SDS011;5897;42.640;23.310;2022-07-21T14:15:52;8.00;;;3.10;;
11681;SDS011;5897;42.640;23.310;2022-07-21T14:18:19;3.55;;;2.10;;
11681;SDS011;5897;42.640;23.310;2022-07-21T14:20:46;3.70;;;1.80;;
11681;SDS011;5897;42.640;23.310;2022-07-21T14:23:17;2.00;;;1.80;;
11681;SDS011;5897;42.640;23.310;2022-07-21T14:25:44;3.95;;;2.13;;
11681;SDS011;5897;42.640;23.310;2022-07-21T14:28:11;3.92;;;2.20;;
11681;SDS011;5897;42.640;23.310;2022-07-21T14:30:38;2.42;;;2.00;;
11681;SDS011;5897;42.640;23.310;2022-07-21T14:33:06;3.38;;;2.10;;
11681;SDS011;5897;42.640;23.310;2022-07-21T14:35:33;3.28;;;2.10;;
11681;SDS011;5897;42.640;23.310;2022-07-21T14:37:59;4.95;;;2.00;;
11681;SDS011;5897;42.640;23.310;2022-07-21T14:40:26;5.32;;;2.03;;
11681;SDS011;5897;42.640;23.310;2022-07-21T14:42:53;5.07;;;2.22;;
11681;SDS011;5897;42.640;23.310;2022-07-21T14:45:20;5.68;;;2.08;;
11681;SDS011;5897;42.640;23.310;2022-07-21T14:47:48;3.35;;;1.98;;
11681;SDS011;5897;42.640;23.310;2022-07-21T14:50:16;4.53;;;2.05;;
11681;SDS011;5897;42.640;23.310;2022-07-21T14:52:43;3.38;;;1.92;;
11681;SDS011;5897;42.640;23.310;2022-07-21T14:55:10;5.40;;;1.90;;
11681;SDS011;5897;42.640;23.310;2022-07-21T14:57:37;3.55;;;1.83;;
11681;SDS011;5897;42.640;23.310;2022-07-21T15:00:05;2.40;;;2.10;;
11681;SDS011;5897;42.640;23.310;2022-07-21T15:02:33;3.17;;;2.10;;
11681;SDS011;5897;42.640;23.310;2022-07-21T15:05:00;3.83;;;2.13;;
11681;SDS011;5897;42.640;23.310;2022-07-21T15:07:28;3.65;;;2.03;;